Time;durP1;ratioP1;P1;durP2;ratioP2;P2;SDS_P1;SDS_P2;PMS_P1;PMS_P2;Temp;Humidity;BMP_temperature;BMP_pressure;BME280_temperature;BME280_humidity;BME280_pressure;Samples;Min_cycle;Max_cycle;Signal;HPM_P1;HPM_P2
2023/12/16 00:01:13;;;;;;;16.75;4.03;;;;;;;;;;5013034;28;20091;-67
2023/12/16 00:03:59;;;;;;;15.13;3.90;;;;;;;;;;5013984;28;20090;-67
2023/12/16 00:06:45;;;;;;;14.40;3.30;;;;;;;;;;5013349;28;20028;-68
2023/12/16 00:09:30;;;;;;;28.27;3.58;;;;;;;;;;5013470;28;20499;-67
2023/12/16 00:12:16;;;;;;;30.88;5.18;;;;;;;;;;5013091;28;20435;-68
2023/12/16 00:15:02;;;;;;;25.25;4.47;;;;;;;;;;5001664;28;20565;-68
2023/12/16 00:17:48;;;;;;;26.27;4.35;;;;;;;;;;5012824;28;20030;-68
2023/12/16 00:20:33;;;;;;;18.20;4.05;;;;;;;;;;5013876;28;20022;-68
2023/12/16 00:23:19;;;;;;;22.73;3.72;;;;;;;;;;5013805;28;20033;-67
2023/12/16 00:26:04;;;;;;;30.85;4.65;;;;;;;;;;5012753;28;20025;-67
2023/12/16 00:28:50;;;;;;;24.67;4.43;;;;;;;;;;5011956;28;20033;-68
2023/12/16 00:31:36;;;;;;;33.72;4.57;;;;;;;;;;4999360;28;20018;-67
2023/12/16 00:34:21;;;;;;;24.45;4.30;;;;;;;;;;5008481;28;20045;-67
2023/12/16 00:37:08;;;;;;;19.85;3.88;;;;;;;;;;5012804;28;20036;-67
2023/12/16 00:39:53;;;;;;;22.88;3.70;;;;;;;;;;5012911;28;20036;-68
2023/12/16 00:42:39;;;;;;;18.50;4.10;;;;;;;;;;4999947;28;20585;-67
2023/12/16 00:45:24;;;;;;;35.42;5.22;;;;;;;;;;5002461;28;20029;-67
2023/12/16 00:48:10;;;;;;;18.95;3.65;;;;;;;;;;5013091;28;20029;-67
2023/12/16 00:50:56;;;;;;;10.30;2.88;;;;;;;;;;5007362;28;20033;-67
2023/12/16 00:53:41;;;;;;;19.02;3.08;;;;;;;;;;5015151;28;20029;-67
2023/12/16 00:56:27;;;;;;;22.25;4.25;;;;;;;;;;5012003;28;20027;-67
2023/12/16 00:59:13;;;;;;;16.60;3.53;;;;;;;;;;5012691;28;20030;-68
2023/12/16 01:01:59;;;;;;;27.27;5.10;;;;;;;;;;5011393;28;20025;-67
2023/12/16 01:04:45;;;;;;;24.27;3.40;;;;;;;;;;5012504;28;20116;-67
2023/12/16 01:07:31;;;;;;;10.95;4.25;;;;;;;;;;5012115;28;20029;-67
2023/12/16 01:10:16;;;;;;;14.57;3.35;;;;;;;;;;5012420;28;20029;-67
2023/12/16 01:13:02;;;;;;;11.45;2.88;;;;;;;;;;5012576;28;20018;-67
2023/12/16 01:15:48;;;;;;;26.25;3.90;;;;;;;;;;5011178;28;20034;-67
2023/12/16 01:18:33;;;;;;;25.45;4.03;;;;;;;;;;5012370;28;20018;-67
2023/12/16 01:21:19;;;;;;;23.92;3.05;;;;;;;;;;5012212;28;20022;-67
2023/12/16 01:24:05;;;;;;;16.73;3.08;;;;;;;;;;5012188;28;20026;-67
2023/12/16 01:26:50;;;;;;;28.95;4.40;;;;;;;;;;5012896;28;20026;-67
2023/12/16 01:29:36;;;;;;;32.60;6.30;;;;;;;;;;5011893;28;20030;-67
2023/12/16 01:32:22;;;;;;;20.73;3.47;;;;;;;;;;5010736;28;20061;-67
2023/12/16 01:35:07;;;;;;;21.52;5.72;;;;;;;;;;5012614;28;20117;-67
2023/12/16 01:37:53;;;;;;;17.38;3.85;;;;;;;;;;5012416;28;20478;-67
2023/12/16 01:40:39;;;;;;;30.23;4.97;;;;;;;;;;5011377;28;20108;-67
2023/12/16 01:43:24;;;;;;;16.92;3.17;;;;;;;;;;5012656;28;20076;-67
2023/12/16 01:46:10;;;;;;;22.73;3.45;;;;;;;;;;5011486;28;20026;-67
2023/12/16 01:48:56;;;;;;;16.45;3.38;;;;;;;;;;5015627;28;20030;-67
2023/12/16 01:51:43;;;;;;;27.85;5.65;;;;;;;;;;5014314;28;20022;-67
2023/12/16 01:54:28;;;;;;;23.88;4.78;;;;;;;;;;5014283;28;20033;-67
2023/12/16 01:57:14;;;;;;;20.65;5.10;;;;;;;;;;5013255;28;20486;-67
2023/12/16 02:00:00;;;;;;;12.98;2.95;;;;;;;;;;5014318;28;20036;-67
2023/12/16 02:02:46;;;;;;;28.90;4.20;;;;;;;;;;5015992;28;20034;-68
2023/12/16 02:05:31;;;;;;;19.17;3.78;;;;;;;;;;5016015;28;20569;-67
2023/12/16 02:08:17;;;;;;;23.15;4.65;;;;;;;;;;5014841;28;20024;-67
2023/12/16 02:11:03;;;;;;;19.90;3.30;;;;;;;;;;5014033;28;20026;-67
2023/12/16 02:13:50;;;;;;;34.60;4.70;;;;;;;;;;5014053;28;20022;-67
2023/12/16 02:16:36;;;;;;;20.90;3.50;;;;;;;;;;5006717;28;20052;-67
2023/12/16 02:19:25;;;;;;;16.10;3.72;;;;;;;;;;5007972;28;20030;-68
2023/12/16 02:22:11;;;;;;;18.02;2.95;;;;;;;;;;4998974;28;20048;-68
2023/12/16 02:24:57;;;;;;;26.02;3.90;;;;;;;;;;5015975;28;20436;-67
2023/12/16 02:27:46;;;;;;;13.82;3.13;;;;;;;;;;5014339;28;20070;-67
2023/12/16 02:30:31;;;;;;;18.48;3.65;;;;;;;;;;5015618;28;20028;-67
2023/12/16 02:33:17;;;;;;;24.30;3.25;;;;;;;;;;5014780;28;20065;-67
2023/12/16 02:36:03;;;;;;;18.15;3.03;;;;;;;;;;5013406;28;20018;-67
2023/12/16 02:38:49;;;;;;;32.42;4.43;;;;;;;;;;5015405;28;20026;-67
2023/12/16 02:41:34;;;;;;;22.05;3.30;;;;;;;;;;5014177;28;20022;-67
2023/12/16 02:44:20;;;;;;;20.27;4.72;;;;;;;;;;5014889;28;20029;-67
2023/12/16 02:47:07;;;;;;;27.52;4.07;;;;;;;;;;5013899;28;20444;-67
2023/12/16 02:49:52;;;;;;;22.42;4.47;;;;;;;;;;5014324;28;20022;-67
2023/12/16 02:52:38;;;;;;;23.95;4.13;;;;;;;;;;5013260;28;20026;-67
2023/12/16 02:55:24;;;;;;;28.83;5.28;;;;;;;;;;5013261;28;20030;-67
2023/12/16 02:58:09;;;;;;;26.80;4.45;;;;;;;;;;5015410;28;20022;-67
2023/12/16 03:00:55;;;;;;;29.02;5.35;;;;;;;;;;5013977;28;20108;-68
2023/12/16 03:03:41;;;;;;;22.33;4.45;;;;;;;;;;5015522;28;20014;-67
2023/12/16 03:06:26;;;;;;;22.20;3.25;;;;;;;;;;5014271;28;20029;-67
2023/12/16 03:09:12;;;;;;;25.23;3.75;;;;;;;;;;5013160;28;20100;-67
2023/12/16 03:11:59;;;;;;;24.48;3.92;;;;;;;;;;5015369;28;20018;-67
2023/12/16 03:14:45;;;;;;;28.00;4.75;;;;;;;;;;5014016;28;20033;-67
2023/12/16 03:17:30;;;;;;;17.58;3.85;;;;;;;;;;5013543;28;20026;-67
2023/12/16 03:20:16;;;;;;;18.85;5.03;;;;;;;;;;5013147;28;20021;-67
2023/12/16 03:23:02;;;;;;;24.25;4.57;;;;;;;;;;5012594;28;20510;-68
2023/12/16 03:25:48;;;;;;;21.40;5.43;;;;;;;;;;5014787;28;20026;-67
2023/12/16 03:28:33;;;;;;;17.17;4.53;;;;;;;;;;5013135;28;20088;-67
2023/12/16 03:31:19;;;;;;;34.72;5.20;;;;;;;;;;4994044;28;20476;-67
2023/12/16 03:34:05;;;;;;;23.50;5.20;;;;;;;;;;5011570;28;20034;-67
2023/12/16 03:36:50;;;;;;;30.65;4.82;;;;;;;;;;5013989;28;20079;-68
2023/12/16 03:39:39;;;;;;;34.92;5.35;;;;;;;;;;5012605;28;20024;-67
2023/12/16 03:42:25;;;;;;;23.52;4.45;;;;;;;;;;5012531;28;20076;-67
2023/12/16 03:45:10;;;;;;;23.13;3.83;;;;;;;;;;5013846;28;20113;-67
2023/12/16 03:47:56;;;;;;;28.25;4.90;;;;;;;;;;5013941;28;20072;-67
2023/12/16 03:50:42;;;;;;;21.05;4.43;;;;;;;;;;5012920;28;20025;-67
2023/12/16 03:53:27;;;;;;;21.98;4.32;;;;;;;;;;5012939;28;20028;-67
2023/12/16 03:56:13;;;;;;;29.63;5.28;;;;;;;;;;5013911;28;20411;-67
2023/12/16 03:58:58;;;;;;;29.75;3.95;;;;;;;;;;5014390;28;20030;-67
2023/12/16 04:01:45;;;;;;;14.40;4.80;;;;;;;;;;5013541;28;20101;-68
2023/12/16 04:04:32;;;;;;;23.55;5.63;;;;;;;;;;5011083;28;20022;-67
2023/12/16 04:07:18;;;;;;;23.10;4.20;;;;;;;;;;5012467;28;20410;-68
2023/12/16 04:10:04;;;;;;;25.35;4.00;;;;;;;;;;5013279;28;20018;-68
2023/12/16 04:12:50;;;;;;;26.55;4.57;;;;;;;;;;5011563;28;20018;-67
2023/12/16 04:15:35;;;;;;;18.55;3.85;;;;;;;;;;5013289;28;20038;-67
2023/12/16 04:18:21;;;;;;;21.73;4.93;;;;;;;;;;5012805;28;20049;-67
2023/12/16 04:21:07;;;;;;;26.55;4.50;;;;;;;;;;5012878;28;20022;-67
2023/12/16 04:23:52;;;;;;;23.27;3.97;;;;;;;;;;5013484;28;20108;-68
2023/12/16 04:26:38;;;;;;;33.83;4.63;;;;;;;;;;5012322;28;20083;-67
2023/12/16 04:29:24;;;;;;;12.88;3.58;;;;;;;;;;5013979;28;20072;-67
2023/12/16 04:32:09;;;;;;;19.48;4.78;;;;;;;;;;5013280;28;20032;-67
2023/12/16 04:34:55;;;;;;;27.35;5.35;;;;;;;;;;5011947;28;20018;-67
2023/12/16 04:37:40;;;;;;;22.40;3.90;;;;;;;;;;5014960;28;20038;-67
2023/12/16 04:40:27;;;;;;;18.85;3.83;;;;;;;;;;5013562;28;20099;-67
2023/12/16 04:43:12;;;;;;;24.80;4.20;;;;;;;;;;5013143;28;20029;-68
2023/12/16 04:46:00;;;;;;;17.42;5.05;;;;;;;;;;5004453;28;20034;-67
2023/12/16 04:48:46;;;;;;;29.98;4.75;;;;;;;;;;5010251;28;20053;-67
2023/12/16 04:51:31;;;;;;;30.88;4.50;;;;;;;;;;5013362;28;20036;-67
2023/12/16 04:54:17;;;;;;;22.45;4.45;;;;;;;;;;5012239;28;20029;-67
2023/12/16 04:57:03;;;;;;;18.95;3.88;;;;;;;;;;5012660;28;20026;-67
2023/12/16 04:59:48;;;;;;;17.92;3.83;;;;;;;;;;5011909;28;20031;-67
2023/12/16 05:02:34;;;;;;;24.13;4.10;;;;;;;;;;5011889;28;20032;-67
2023/12/16 05:05:20;;;;;;;28.52;4.85;;;;;;;;;;5011776;28;20398;-67
2023/12/16 05:08:05;;;;;;;21.83;3.58;;;;;;;;;;5012696;28;20017;-67
2023/12/16 05:10:51;;;;;;;26.55;4.10;;;;;;;;;;5011056;28;20026;-67
2023/12/16 05:13:36;;;;;;;17.33;3.95;;;;;;;;;;5012919;28;20014;-67
2023/12/16 05:16:23;;;;;;;30.05;4.55;;;;;;;;;;5012160;28;20392;-67
2023/12/16 05:19:09;;;;;;;20.63;3.45;;;;;;;;;;5011072;28;20028;-67
2023/12/16 05:21:55;;;;;;;22.63;4.47;;;;;;;;;;5011270;28;20022;-67
2023/12/16 05:24:40;;;;;;;25.23;5.63;;;;;;;;;;5015019;28;20029;-67
2023/12/16 05:27:26;;;;;;;35.47;5.65;;;;;;;;;;5016107;28;20037;-67
2023/12/16 05:30:12;;;;;;;15.77;3.92;;;;;;;;;;5015877;28;20088;-68
2023/12/16 05:32:57;;;;;;;27.70;4.25;;;;;;;;;;5005080;28;20480;-67
2023/12/16 05:35:43;;;;;;;21.85;4.18;;;;;;;;;;5016077;28;20053;-67
2023/12/16 05:38:29;;;;;;;15.10;4.55;;;;;;;;;;5016161;28;20030;-67
2023/12/16 05:41:14;;;;;;;24.65;6.15;;;;;;;;;;5015696;28;20021;-67
2023/12/16 05:44:00;;;;;;;29.70;4.82;;;;;;;;;;5015905;28;20078;-67
2023/12/16 05:46:45;;;;;;;23.52;4.55;;;;;;;;;;5015894;28;20065;-67
2023/12/16 05:49:31;;;;;;;24.08;5.40;;;;;;;;;;5015235;28;20033;-68
2023/12/16 05:52:17;;;;;;;20.80;5.10;;;;;;;;;;5015140;28;20026;-67
2023/12/16 05:55:04;;;;;;;29.35;4.00;;;;;;;;;;5015765;28;20033;-67
2023/12/16 05:57:49;;;;;;;31.42;5.65;;;;;;;;;;5015737;28;20053;-67
2023/12/16 06:00:35;;;;;;;28.30;4.80;;;;;;;;;;5014392;28;20021;-67
2023/12/16 06:03:20;;;;;;;34.60;4.88;;;;;;;;;;5016115;28;20411;-67
2023/12/16 06:06:06;;;;;;;24.00;4.50;;;;;;;;;;5015724;28;20025;-67
2023/12/16 06:08:53;;;;;;;21.88;4.65;;;;;;;;;;5014979;28;20021;-67
2023/12/16 06:11:39;;;;;;;26.17;5.38;;;;;;;;;;5013671;28;20017;-67
2023/12/16 06:14:25;;;;;;;26.55;4.13;;;;;;;;;;5014774;28;20495;-67
2023/12/16 06:17:10;;;;;;;20.33;5.30;;;;;;;;;;5015370;28;20033;-67
2023/12/16 06:19:56;;;;;;;23.65;4.82;;;;;;;;;;5013617;28;20049;-67
2023/12/16 06:22:41;;;;;;;24.58;4.38;;;;;;;;;;5015379;28;20018;-67
2023/12/16 06:25:27;;;;;;;23.52;5.43;;;;;;;;;;5014414;28;20029;-67
2023/12/16 06:28:13;;;;;;;20.35;4.10;;;;;;;;;;5014581;28;20022;-67
2023/12/16 06:30:58;;;;;;;18.42;4.50;;;;;;;;;;5015660;28;20033;-67
2023/12/16 06:33:45;;;;;;;19.20;5.15;;;;;;;;;;5014630;28;20101;-67
2023/12/16 06:36:30;;;;;;;13.40;4.13;;;;;;;;;;5012550;28;20499;-67
2023/12/16 06:39:16;;;;;;;16.15;3.90;;;;;;;;;;5014764;28;20029;-67
2023/12/16 06:42:01;;;;;;;23.90;4.15;;;;;;;;;;5015498;28;20024;-68
2023/12/16 06:44:47;;;;;;;20.13;4.43;;;;;;;;;;5015181;28;20502;-67
2023/12/16 06:47:33;;;;;;;21.15;4.38;;;;;;;;;;5014878;28;20415;-67
2023/12/16 06:50:18;;;;;;;18.52;6.10;;;;;;;;;;5014771;28;20026;-67
2023/12/16 06:53:04;;;;;;;19.95;4.78;;;;;;;;;;5014280;28;20018;-67
2023/12/16 06:55:51;;;;;;;21.30;4.65;;;;;;;;;;5013625;28;20053;-67
2023/12/16 06:58:37;;;;;;;20.80;4.25;;;;;;;;;;5014225;28;20029;-67
2023/12/16 07:01:23;;;;;;;19.20;5.00;;;;;;;;;;5015330;28;20022;-67
2023/12/16 07:04:09;;;;;;;16.70;5.82;;;;;;;;;;5013195;28;20503;-67
2023/12/16 07:06:54;;;;;;;27.75;6.00;;;;;;;;;;5014711;28;20092;-67
2023/12/16 07:09:40;;;;;;;29.65;5.63;;;;;;;;;;5014448;28;20025;-67
2023/12/16 07:12:26;;;;;;;20.15;5.50;;;;;;;;;;5013620;28;20372;-67
2023/12/16 07:15:11;;;;;;;29.58;6.03;;;;;;;;;;5013701;28;20034;-67
2023/12/16 07:17:57;;;;;;;28.60;5.97;;;;;;;;;;5014185;28;20488;-67
2023/12/16 07:20:43;;;;;;;25.80;5.82;;;;;;;;;;5013061;28;20034;-68
2023/12/16 07:23:33;;;;;;;33.50;5.90;;;;;;;;;;5014381;28;20025;-67
2023/12/16 07:26:18;;;;;;;27.02;5.68;;;;;;;;;;5013603;28;20029;-67
2023/12/16 07:29:04;;;;;;;37.75;6.43;;;;;;;;;;5013936;28;20061;-67
2023/12/16 07:31:50;;;;;;;26.73;4.95;;;;;;;;;;5014017;28;20026;-67
2023/12/16 07:34:36;;;;;;;28.38;6.63;;;;;;;;;;5014203;28;20034;-68
2023/12/16 07:37:21;;;;;;;57.28;8.52;;;;;;;;;;5013008;28;20026;-68
2023/12/16 07:40:10;;;;;;;45.17;6.78;;;;;;;;;;5014025;28;20022;-67
2023/12/16 07:42:56;;;;;;;48.38;7.80;;;;;;;;;;5012904;28;20040;-68
2023/12/16 07:45:41;;;;;;;47.03;7.13;;;;;;;;;;5013028;28;20076;-68
2023/12/16 07:48:27;;;;;;;25.42;6.32;;;;;;;;;;5013257;28;20026;-67
2023/12/16 07:51:17;;;;;;;56.05;8.23;;;;;;;;;;5012971;28;20068;-68
2023/12/16 07:54:03;;;;;;;42.38;7.47;;;;;;;;;;5012290;28;20026;-68
2023/12/16 07:56:48;;;;;;;42.22;8.15;;;;;;;;;;5014504;28;20230;-68
2023/12/16 07:59:34;;;;;;;35.58;7.28;;;;;;;;;;5013263;28;20421;-67
2023/12/16 08:02:19;;;;;;;34.83;6.80;;;;;;;;;;5013640;28;20101;-67
2023/12/16 08:05:06;;;;;;;43.05;6.72;;;;;;;;;;5013428;28;20376;-67
2023/12/16 08:07:52;;;;;;;37.50;6.53;;;;;;;;;;5013044;28;20026;-67
2023/12/16 08:10:39;;;;;;;40.67;8.00;;;;;;;;;;5012052;28;20047;-68
2023/12/16 08:13:25;;;;;;;35.33;6.80;;;;;;;;;;5014069;28;20017;-68
2023/12/16 08:16:11;;;;;;;43.33;6.93;;;;;;;;;;5013092;28;20442;-67
2023/12/16 08:18:56;;;;;;;44.17;9.18;;;;;;;;;;5012836;28;20026;-68
2023/12/16 08:21:42;;;;;;;23.83;6.53;;;;;;;;;;5012151;28;20113;-67
2023/12/16 08:24:32;;;;;;;44.60;8.60;;;;;;;;;;5013460;28;20021;-69
2023/12/16 08:27:17;;;;;;;33.55;7.18;;;;;;;;;;5014196;28;20018;-69
2023/12/16 08:30:05;;;;;;;49.08;8.57;;;;;;;;;;5013447;28;20022;-69
2023/12/16 08:32:52;;;;;;;43.42;7.93;;;;;;;;;;5012500;28;20140;-68
2023/12/16 08:35:42;;;;;;;58.03;9.60;;;;;;;;;;5013117;28;20065;-68
2023/12/16 08:38:33;;;;;;;37.88;6.43;;;;;;;;;;5013522;28;20029;-69
2023/12/16 08:41:19;;;;;;;42.60;7.75;;;;;;;;;;5013144;28;20446;-69
2023/12/16 08:44:07;;;;;;;32.17;7.38;;;;;;;;;;5012687;28;20125;-69
2023/12/16 08:46:52;;;;;;;30.52;6.85;;;;;;;;;;5010532;28;20026;-69
2023/12/16 08:49:43;;;;;;;44.80;6.93;;;;;;;;;;5012026;28;20030;-69
2023/12/16 08:52:30;;;;;;;;;;;;;;;;;;5014134;28;20026;-69
2023/12/16 08:55:16;;;;;;;29.13;6.68;;;;;;;;;;5011607;28;19910;-69
2023/12/16 08:58:02;;;;;;;30.33;7.78;;;;;;;;;;5012541;28;20049;-69
2023/12/16 09:00:48;;;;;;;53.28;8.52;;;;;;;;;;5012375;28;20055;-69
2023/12/16 09:03:34;;;;;;;41.05;8.10;;;;;;;;;;5012145;28;20459;-69
2023/12/16 09:06:20;;;;;;;54.65;7.80;;;;;;;;;;5013121;28;20022;-69
2023/12/16 09:09:06;;;;;;;45.20;8.90;;;;;;;;;;5010903;28;20022;-69
2023/12/16 09:11:52;;;;;;;45.20;8.60;;;;;;;;;;5011899;28;20026;-69
2023/12/16 09:14:38;;;;;;;32.80;8.32;;;;;;;;;;5012490;28;20458;-69
2023/12/16 09:17:23;;;;;;;45.38;9.35;;;;;;;;;;5012055;28;20018;-69
2023/12/16 09:20:09;;;;;;;54.55;9.40;;;;;;;;;;5011181;28;20033;-69
2023/12/16 09:22:55;;;;;;;32.10;8.60;;;;;;;;;;5011609;28;20014;-70
2023/12/16 09:25:40;;;;;;;40.80;8.98;;;;;;;;;;5010824;28;20029;-70
2023/12/16 09:28:26;;;;;;;52.88;10.20;;;;;;;;;;5012246;28;20501;-70
2023/12/16 09:31:12;;;;;;;32.97;8.45;;;;;;;;;;5000290;28;20028;-70
2023/12/16 09:33:57;;;;;;;47.80;9.15;;;;;;;;;;4992506;28;20030;-70
2023/12/16 09:36:43;;;;;;;45.92;8.95;;;;;;;;;;5003877;28;20022;-70
2023/12/16 09:39:28;;;;;;;55.28;8.95;;;;;;;;;;5012861;28;20407;-70
2023/12/16 09:42:14;;;;;;;54.75;12.02;;;;;;;;;;5011912;28;20464;-69
2023/12/16 09:45:02;;;;;;;32.22;7.82;;;;;;;;;;5010913;28;20025;-69
2023/12/16 09:47:48;;;;;;;40.25;9.57;;;;;;;;;;5011040;28;20030;-69
2023/12/16 09:50:35;;;;;;;41.10;9.57;;;;;;;;;;5010779;28;20030;-70
2023/12/16 09:53:21;;;;;;;40.70;9.38;;;;;;;;;;5011789;28;20060;-69
2023/12/16 09:56:09;;;;;;;50.88;11.02;;;;;;;;;;5009906;28;20110;-69
2023/12/16 09:58:56;;;;;;;37.63;8.88;;;;;;;;;;5011732;28;20062;-69
2023/12/16 10:01:49;;;;;;;36.25;8.93;;;;;;;;;;5012883;28;20029;-69
2023/12/16 10:04:35;;;;;;;45.03;9.13;;;;;;;;;;5011072;28;20407;-68
2023/12/16 10:07:21;;;;;;;43.47;9.27;;;;;;;;;;5009246;28;20037;-68
2023/12/16 10:10:07;;;;;;;54.45;9.05;;;;;;;;;;5016152;28;20503;-68
2023/12/16 10:12:52;;;;;;;38.38;8.02;;;;;;;;;;5016002;28;20402;-68
2023/12/16 10:15:38;;;;;;;37.95;9.35;;;;;;;;;;5015772;28;20029;-68
2023/12/16 10:18:25;;;;;;;32.88;9.85;;;;;;;;;;5015379;28;20026;-69
2023/12/16 10:21:19;;;;;;;44.38;8.68;;;;;;;;;;5015362;28;20021;-69
2023/12/16 10:24:05;;;;;;;44.60;9.77;;;;;;;;;;5014983;28;20022;-68
2023/12/16 10:26:51;;;;;;;45.70;8.98;;;;;;;;;;5015080;28;20041;-69
2023/12/16 10:29:39;;;;;;;50.17;8.75;;;;;;;;;;5014992;28;20022;-69
2023/12/16 10:32:26;;;;;;;36.38;8.73;;;;;;;;;;5013029;28;20033;-69
2023/12/16 10:35:11;;;;;;;41.83;10.50;;;;;;;;;;5014421;28;20033;-68
2023/12/16 10:37:57;;;;;;;43.75;9.55;;;;;;;;;;5014749;28;20048;-68
2023/12/16 10:40:44;;;;;;;41.42;9.27;;;;;;;;;;5015233;28;20053;-69
2023/12/16 10:43:29;;;;;;;48.50;9.00;;;;;;;;;;5015186;28;20464;-69
2023/12/16 10:46:17;;;;;;;44.05;9.90;;;;;;;;;;5013773;28;20101;-69
2023/12/16 10:49:06;;;;;;;55.08;12.10;;;;;;;;;;5014332;28;20544;-69
2023/12/16 10:51:59;;;;;;;40.72;8.23;;;;;;;;;;5014598;28;20403;-69
2023/12/16 10:54:47;;;;;;;37.35;9.23;;;;;;;;;;5013988;28;20100;-69
2023/12/16 10:57:39;;;;;;;45.08;8.55;;;;;;;;;;5016088;28;20054;-69
2023/12/16 11:00:28;;;;;;;46.15;9.38;;;;;;;;;;5013636;28;20077;-69
2023/12/16 11:03:34;;;;;;;43.35;8.45;;;;;;;;;;5012617;28;20049;-69
2023/12/16 11:07:03;;;;;;;38.13;8.60;;;;;;;;;;5003969;28;20027;-69
2023/12/16 11:09:49;;;;;;;53.95;11.65;;;;;;;;;;4923480;29;20035;-69
2023/12/16 11:12:37;;;;;;;52.22;9.55;;;;;;;;;;5012338;28;20022;-69
2023/12/16 11:15:23;;;;;;;53.42;10.20;;;;;;;;;;5012199;28;20037;-69
2023/12/16 11:18:14;;;;;;;58.88;8.10;;;;;;;;;;5013479;28;20030;-69
2023/12/16 11:21:04;;;;;;;31.67;8.05;;;;;;;;;;5011107;28;20022;-69
2023/12/16 11:23:50;;;;;;;50.33;9.98;;;;;;;;;;5012641;28;20014;-69
2023/12/16 11:26:35;;;;;;;45.22;9.98;;;;;;;;;;5014542;28;20022;-69
2023/12/16 11:29:22;;;;;;;46.55;8.13;;;;;;;;;;5013619;28;20017;-69
2023/12/16 11:32:09;;;;;;;48.40;9.68;;;;;;;;;;5013964;28;20025;-69
2023/12/16 11:34:54;;;;;;;35.03;8.25;;;;;;;;;;5014362;28;20056;-69
2023/12/16 11:37:41;;;;;;;54.25;9.07;;;;;;;;;;5013721;28;20024;-69
2023/12/16 11:40:41;;;;;;;43.03;9.80;;;;;;;;;;5014195;28;20025;-69
2023/12/16 11:43:52;;;;;;;36.90;7.43;;;;;;;;;;4999898;28;20026;-69
2023/12/16 11:46:39;;;;;;;36.13;7.38;;;;;;;;;;5013128;28;20097;-69
2023/12/16 11:49:25;;;;;;;32.85;7.72;;;;;;;;;;5012742;28;20033;-69
2023/12/16 11:52:11;;;;;;;43.13;9.55;;;;;;;;;;5014026;28;20030;-69
2023/12/16 11:54:59;;;;;;;41.03;8.82;;;;;;;;;;5011955;28;20033;-69
2023/12/16 11:57:47;;;;;;;48.67;11.50;;;;;;;;;;5013564;28;20044;-69
2023/12/16 12:00:33;;;;;;;56.47;11.32;;;;;;;;;;5010992;28;20112;-69
2023/12/16 12:03:21;;;;;;;52.47;9.77;;;;;;;;;;5013905;28;20088;-69
2023/12/16 12:06:07;;;;;;;51.25;10.95;;;;;;;;;;5013794;28;20454;-69
2023/12/16 12:08:52;;;;;;;43.88;9.57;;;;;;;;;;5013308;28;20052;-69
2023/12/16 12:11:38;;;;;;;37.88;7.88;;;;;;;;;;5013595;28;20065;-69
2023/12/16 12:14:24;;;;;;;54.97;11.13;;;;;;;;;;5013522;28;20084;-69
2023/12/16 12:17:13;;;;;;;43.30;11.00;;;;;;;;;;5014491;28;20026;-69
2023/12/16 12:19:59;;;;;;;64.53;10.07;;;;;;;;;;5013398;28;20026;-69
2023/12/16 12:22:45;;;;;;;52.10;9.73;;;;;;;;;;5013384;28;20021;-69
2023/12/16 12:25:30;;;;;;;36.83;8.90;;;;;;;;;;5012618;28;20032;-69
2023/12/16 12:28:17;;;;;;;50.42;9.85;;;;;;;;;;5014163;28;20407;-69
2023/12/16 12:31:07;;;;;;;44.70;10.25;;;;;;;;;;5013208;28;20495;-70
2023/12/16 12:33:53;;;;;;;40.47;7.68;;;;;;;;;;5013091;28;20040;-70
2023/12/16 12:36:39;;;;;;;50.42;9.82;;;;;;;;;;5012482;28;20030;-69
2023/12/16 12:39:25;;;;;;;41.78;8.32;;;;;;;;;;5012820;28;20029;-69
2023/12/16 12:42:11;;;;;;;54.20;8.68;;;;;;;;;;5011349;28;20092;-69
2023/12/16 12:44:58;;;;;;;63.90;8.65;;;;;;;;;;5013127;28;20080;-69
2023/12/16 12:47:43;;;;;;;46.45;9.95;;;;;;;;;;5012235;28;20421;-69
2023/12/16 12:50:29;;;;;;;56.45;10.18;;;;;;;;;;5012226;28;20021;-69
2023/12/16 12:53:19;;;;;;;56.83;9.82;;;;;;;;;;5011908;28;20040;-69
2023/12/16 12:56:05;;;;;;;59.47;9.75;;;;;;;;;;5012557;28;20030;-69
2023/12/16 12:58:52;;;;;;;44.28;9.63;;;;;;;;;;5025397;28;20029;-69
2023/12/16 13:01:37;;;;;;;55.10;9.00;;;;;;;;;;5013803;28;20028;-69
2023/12/16 13:04:23;;;;;;;46.15;8.93;;;;;;;;;;5012658;28;20014;-70
2023/12/16 13:07:08;;;;;;;51.10;9.02;;;;;;;;;;5014203;28;20030;-70
2023/12/16 13:09:54;;;;;;;47.85;9.77;;;;;;;;;;5011663;28;20022;-70
2023/12/16 13:12:40;;;;;;;45.85;7.97;;;;;;;;;;5013337;28;20083;-69
2023/12/16 13:15:25;;;;;;;43.67;10.93;;;;;;;;;;5011982;28;20118;-69
2023/12/16 13:18:12;;;;;;;33.05;9.13;;;;;;;;;;5012331;28;20507;-70
2023/12/16 13:21:00;;;;;;;39.53;7.95;;;;;;;;;;5011828;28;20030;-70
2023/12/16 13:23:45;;;;;;;33.85;8.20;;;;;;;;;;5011898;28;20037;-69
2023/12/16 13:26:31;;;;;;;53.70;8.52;;;;;;;;;;5012551;28;20410;-70
2023/12/16 13:29:18;;;;;;;38.28;7.20;;;;;;;;;;5011023;28;20100;-70
2023/12/16 13:32:04;;;;;;;36.88;8.00;;;;;;;;;;5011785;28;20113;-70
2023/12/16 13:34:50;;;;;;;29.58;5.88;;;;;;;;;;5012918;28;20562;-70
2023/12/16 13:37:35;;;;;;;24.52;6.35;;;;;;;;;;5012104;28;20025;-70
2023/12/16 13:40:21;;;;;;;34.15;5.95;;;;;;;;;;5011492;28;20022;-70
2023/12/16 13:43:07;;;;;;;21.15;5.40;;;;;;;;;;5013472;28;20076;-70
2023/12/16 13:45:53;;;;;;;39.90;6.57;;;;;;;;;;5015885;28;20026;-70
2023/12/16 13:48:38;;;;;;;34.20;5.72;;;;;;;;;;5015471;28;20161;-70
2023/12/16 13:51:25;;;;;;;39.38;6.65;;;;;;;;;;5015708;28;20434;-70
2023/12/16 13:54:11;;;;;;;23.67;6.63;;;;;;;;;;5016415;28;20487;-70
2023/12/16 13:56:56;;;;;;;25.63;6.25;;;;;;;;;;5016126;28;20034;-70
2023/12/16 13:59:42;;;;;;;37.75;7.45;;;;;;;;;;5015368;28;20032;-70
2023/12/16 14:02:28;;;;;;;25.50;5.75;;;;;;;;;;5016366;28;20046;-70
2023/12/16 14:05:13;;;;;;;31.38;6.72;;;;;;;;;;5014989;28;20018;-70
2023/12/16 14:07:59;;;;;;;30.42;6.30;;;;;;;;;;5015551;28;20384;-69
2023/12/16 14:10:47;;;;;;;24.45;6.38;;;;;;;;;;5015865;28;20022;-70
2023/12/16 14:13:33;;;;;;;20.33;6.13;;;;;;;;;;5016243;28;20022;-70
2023/12/16 14:16:18;;;;;;;25.33;8.02;;;;;;;;;;5015389;28;20037;-70
2023/12/16 14:19:04;;;;;;;32.00;7.00;;;;;;;;;;5015492;28;20431;-70
2023/12/16 14:21:50;;;;;;;28.55;6.47;;;;;;;;;;5015703;28;20428;-70
2023/12/16 14:24:35;;;;;;;30.80;8.98;;;;;;;;;;5015509;28;20114;-70
2023/12/16 14:27:22;;;;;;;26.70;8.23;;;;;;;;;;5016218;28;20076;-70
2023/12/16 14:30:08;;;;;;;25.05;7.82;;;;;;;;;;5016099;28;20073;-70
2023/12/16 14:32:53;;;;;;;20.90;6.70;;;;;;;;;;5013430;28;20068;-70
2023/12/16 14:35:39;;;;;;;21.65;7.20;;;;;;;;;;5015240;28;20113;-70
2023/12/16 14:38:25;;;;;;;24.98;6.93;;;;;;;;;;5016602;28;20025;-70
2023/12/16 14:41:13;;;;;;;63.67;15.60;;;;;;;;;;5015521;28;20037;-70
2023/12/16 14:43:59;;;;;;;48.03;13.52;;;;;;;;;;5015635;28;20056;-70
2023/12/16 14:46:45;;;;;;;35.40;8.23;;;;;;;;;;5015458;28;20140;-70
2023/12/16 14:49:30;;;;;;;33.08;8.07;;;;;;;;;;5015155;28;20065;-70
2023/12/16 14:52:16;;;;;;;41.78;12.55;;;;;;;;;;5015509;28;20026;-70
2023/12/16 14:55:02;;;;;;;54.95;16.85;;;;;;;;;;5013977;28;20061;-70
2023/12/16 14:57:47;;;;;;;34.28;9.60;;;;;;;;;;4999314;28;20026;-70
2023/12/16 15:00:33;;;;;;;25.50;8.55;;;;;;;;;;4994815;28;20041;-70
2023/12/16 15:03:19;;;;;;;24.80;7.53;;;;;;;;;;5009809;28;20514;-70
2023/12/16 15:06:04;;;;;;;28.05;7.90;;;;;;;;;;5014643;28;20124;-70
2023/12/16 15:08:50;;;;;;;17.65;6.78;;;;;;;;;;5013958;28;20037;-70
2023/12/16 15:11:36;;;;;;;23.65;7.45;;;;;;;;;;5015309;28;20450;-70
2023/12/16 15:14:22;;;;;;;16.88;6.35;;;;;;;;;;5013957;28;20033;-70
2023/12/16 15:17:08;;;;;;;25.35;6.45;;;;;;;;;;5014764;28;20026;-70
2023/12/16 15:19:53;;;;;;;14.40;6.03;;;;;;;;;;5015134;28;20496;-70
2023/12/16 15:22:39;;;;;;;25.52;5.65;;;;;;;;;;5014184;28;20419;-70
2023/12/16 15:25:24;;;;;;;21.25;6.70;;;;;;;;;;5015199;28;20108;-70
2023/12/16 15:28:10;;;;;;;24.15;6.88;;;;;;;;;;5014310;28;20025;-70
2023/12/16 15:30:56;;;;;;;20.67;6.35;;;;;;;;;;5012963;28;20456;-70
2023/12/16 15:33:42;;;;;;;28.02;7.47;;;;;;;;;;5013677;28;20022;-70
2023/12/16 15:36:28;;;;;;;14.60;5.38;;;;;;;;;;5014039;28;20049;-70
2023/12/16 15:39:13;;;;;;;17.90;7.82;;;;;;;;;;5013579;28;20024;-71
2023/12/16 15:42:03;;;;;;;20.35;6.45;;;;;;;;;;5014965;28;20037;-70
2023/12/16 15:44:48;;;;;;;25.42;6.80;;;;;;;;;;5013481;28;20061;-70
2023/12/16 15:47:34;;;;;;;16.80;6.35;;;;;;;;;;5014757;28;20022;-70
2023/12/16 15:50:20;;;;;;;26.00;6.50;;;;;;;;;;5014929;28;20026;-70
2023/12/16 15:53:05;;;;;;;26.45;6.38;;;;;;;;;;5013210;28;20029;-69
2023/12/16 15:55:51;;;;;;;18.65;6.22;;;;;;;;;;5015174;28;20109;-70
2023/12/16 15:58:36;;;;;;;23.05;7.43;;;;;;;;;;5013685;28;20025;-69
2023/12/16 16:01:23;;;;;;;21.75;7.00;;;;;;;;;;5014644;28;20601;-70
2023/12/16 16:04:08;;;;;;;16.60;6.90;;;;;;;;;;5014088;28;20022;-70
2023/12/16 16:06:54;;;;;;;31.88;8.23;;;;;;;;;;5013491;28;20025;-70
2023/12/16 16:09:39;;;;;;;32.30;6.95;;;;;;;;;;5015726;28;20030;-71
2023/12/16 16:12:25;;;;;;;22.23;7.15;;;;;;;;;;5013429;28;20084;-70
2023/12/16 16:15:11;;;;;;;19.38;6.63;;;;;;;;;;5013908;28;20111;-70
2023/12/16 16:17:57;;;;;;;30.17;7.18;;;;;;;;;;5014070;28;20026;-70
2023/12/16 16:20:42;;;;;;;26.70;7.07;;;;;;;;;;5013079;28;20056;-70